createdAt,value
2022-09-12T00:00:07.368Z,14.29
2022-09-12T00:02:33.766Z,14.07
2022-09-12T00:05:00.197Z,14.47
2022-09-12T00:07:26.611Z,14.37
2022-09-12T00:09:53.018Z,14.22
2022-09-12T00:12:19.495Z,14.46
2022-09-12T00:14:45.918Z,14.52
2022-09-12T00:17:12.366Z,14.15
2022-09-12T00:19:38.772Z,14.24
2022-09-12T00:22:05.150Z,14.43
2022-09-12T00:24:31.559Z,14.43
2022-09-12T00:26:57.897Z,13.99
2022-09-12T00:29:24.336Z,14.21
2022-09-12T00:31:50.847Z,14.27
2022-09-12T00:34:17.526Z,13.96
2022-09-12T00:36:44.036Z,14.12
2022-09-12T00:39:17.181Z,14.09
2022-09-12T00:41:44.471Z,14.18
2022-09-12T00:44:10.839Z,14.18
2022-09-12T00:46:48.758Z,14.05
2022-09-12T00:49:21.317Z,13.97
2022-09-12T00:51:52.625Z,13.89
2022-09-12T00:54:24.005Z,14.15
2022-09-12T00:56:55.912Z,13.74
2022-09-12T00:59:28.516Z,13.90
2022-09-12T01:01:56.197Z,13.25
2022-09-12T01:04:25.780Z,13.65
2022-09-12T01:06:54.352Z,13.88
2022-09-12T01:09:22.772Z,14.01
2022-09-12T01:11:51.131Z,13.83
2022-09-12T01:14:18.029Z,13.80
2022-09-12T01:16:45.722Z,13.82
2022-09-12T01:19:43.135Z,14.10
2022-09-12T01:22:31.204Z,13.61
2022-09-12T01:25:32.967Z,13.71
2022-09-12T01:28:21.327Z,13.51
2022-09-12T01:31:05.799Z,13.56
2022-09-12T01:33:39.872Z,13.41
2022-09-12T01:37:01.673Z,13.67
2022-09-12T01:39:47.604Z,13.18
2022-09-12T01:42:26.831Z,13.56
2022-09-12T01:45:01.711Z,13.57
2022-09-12T01:47:39.554Z,13.53
2022-09-12T01:50:10.643Z,13.39
2022-09-12T01:52:54.589Z,13.51
2022-09-12T01:55:26.678Z,13.46
2022-09-12T01:58:05.031Z,13.56
2022-09-12T02:00:35.494Z,13.49
2022-09-12T02:03:09.514Z,13.43
2022-09-12T02:06:10.306Z,13.41
2022-09-12T02:08:43.444Z,13.36
2022-09-12T02:11:11.668Z,13.17
2022-09-12T02:13:50.584Z,13.46
2022-09-12T02:16:34.528Z,13.56
2022-09-12T02:19:09.580Z,13.10
2022-09-12T02:21:39.994Z,13.22
2022-09-12T02:24:09.633Z,13.34
2022-09-12T02:26:46.488Z,13.16
2022-09-12T02:29:13.054Z,13.32
2022-09-12T02:31:47.923Z,13.50
2022-09-12T02:34:38.758Z,13.47
2022-09-12T02:37:14.534Z,13.45
2022-09-12T02:39:44.968Z,13.29
2022-09-12T02:42:12.274Z,13.47
2022-09-12T02:44:39.288Z,13.49
2022-09-12T02:47:11.019Z,13.33
2022-09-12T02:49:37.499Z,13.27
2022-09-12T02:52:04.041Z,13.60
2022-09-12T02:54:31.214Z,13.57
2022-09-12T02:56:57.679Z,13.39
2022-09-12T02:59:25.092Z,13.50
2022-09-12T03:02:11.998Z,13.65
2022-09-12T03:04:48.939Z,13.30
2022-09-12T03:07:39.927Z,13.51
2022-09-12T03:10:24.872Z,13.45
2022-09-12T03:13:20.382Z,13.49
2022-09-12T03:15:57.820Z,13.45
2022-09-12T03:18:32.868Z,13.50
2022-09-12T03:21:18.084Z,13.07
2022-09-12T03:23:59.703Z,13.14
2022-09-12T03:26:32.945Z,13.30
2022-09-12T03:29:01.698Z,13.22
2022-09-12T03:31:28.224Z,13.32
2022-09-12T03:33:54.710Z,13.27
2022-09-12T03:36:24.578Z,12.95
2022-09-12T03:38:51.690Z,13.18
2022-09-12T03:41:18.499Z,13.18
2022-09-12T03:43:45.498Z,12.83
2022-09-12T03:46:12.319Z,12.97
2022-09-12T03:48:38.800Z,13.09
2022-09-12T03:51:07.804Z,13.07
2022-09-12T03:53:34.690Z,12.99
2022-09-12T03:56:06.566Z,12.99
2022-09-12T03:58:32.986Z,12.73
2022-09-12T04:00:59.522Z,13.19
2022-09-12T04:03:25.966Z,13.12
2022-09-12T04:05:52.370Z,12.92
2022-09-12T04:08:19.023Z,12.93
2022-09-12T04:10:46.971Z,12.60
2022-09-12T04:13:13.446Z,13.11
2022-09-12T04:15:39.845Z,13.03
2022-09-12T04:18:06.345Z,12.86
2022-09-12T04:20:32.755Z,12.78
2022-09-12T04:22:59.163Z,12.62
2022-09-12T04:25:25.576Z,12.93
2022-09-12T04:27:52.027Z,13.29
2022-09-12T04:30:19.008Z,13.40
2022-09-12T04:32:45.435Z,13.18
2022-09-12T04:35:11.794Z,13.18
2022-09-12T04:37:38.218Z,13.03
2022-09-12T04:40:04.922Z,12.68
2022-09-12T04:42:31.368Z,12.68
2022-09-12T04:44:57.767Z,13.23
2022-09-12T04:47:24.112Z,13.02
2022-09-12T04:49:50.512Z,12.59
2022-09-12T04:52:16.970Z,12.98
2022-09-12T04:54:43.439Z,12.88
2022-09-12T04:57:10.522Z,13.16
2022-09-12T04:59:38.370Z,13.02
2022-09-12T05:02:04.869Z,13.02
2022-09-12T05:04:31.584Z,13.15
2022-09-12T05:06:58.083Z,12.65
2022-09-12T05:09:24.565Z,12.76
2022-09-12T05:12:06.884Z,12.89
2022-09-12T05:14:34.246Z,12.90
2022-09-12T05:17:01.525Z,12.79
2022-09-12T05:19:29.382Z,12.81
2022-09-12T05:21:55.795Z,12.96
2022-09-12T05:24:22.268Z,12.42
2022-09-12T05:26:49.085Z,12.80
2022-09-12T05:29:15.909Z,12.88
2022-09-12T05:31:42.446Z,12.92
2022-09-12T05:34:09.460Z,12.60
2022-09-12T05:36:36.304Z,12.96
2022-09-12T05:39:03.659Z,12.93
2022-09-12T05:41:31.953Z,12.54
2022-09-12T05:44:00.779Z,12.84
2022-09-12T05:46:29.989Z,12.90
2022-09-12T05:48:56.948Z,12.77
2022-09-12T05:51:28.872Z,13.09
2022-09-12T05:53:57.591Z,13.02
2022-09-12T05:56:26.431Z,12.63
2022-09-12T05:58:57.100Z,12.96
2022-09-12T06:01:24.259Z,12.92
2022-09-12T06:03:53.185Z,12.92
2022-09-12T06:06:22.392Z,12.96
2022-09-12T06:08:51.378Z,12.67
2022-09-12T06:11:21.041Z,13.02
2022-09-12T06:13:47.897Z,13.04
2022-09-12T06:16:16.976Z,12.75
2022-09-12T06:18:48.947Z,13.11
2022-09-12T06:21:16.040Z,13.04
2022-09-12T06:23:43.024Z,13.04
2022-09-12T06:26:10.667Z,13.58
2022-09-12T06:28:39.732Z,13.05
2022-09-12T06:31:11.455Z,13.49
2022-09-12T06:33:40.758Z,14.01
2022-09-12T06:36:16.435Z,14.37
2022-09-12T06:38:43.105Z,14.73
2022-09-12T06:41:11.848Z,14.71
2022-09-12T06:43:39.124Z,14.93
2022-09-12T06:46:06.048Z,14.63
2022-09-12T06:48:32.603Z,14.98
2022-09-12T06:51:09.065Z,15.10
2022-09-12T06:53:36.209Z,15.37
2022-09-12T06:56:06.210Z,15.80
2022-09-12T06:58:33.999Z,16.23
2022-09-12T07:01:06.416Z,16.72
2022-09-12T07:03:34.180Z,16.73
2022-09-12T07:06:09.776Z,17.02
2022-09-12T07:08:36.717Z,17.31
2022-09-12T07:11:10.539Z,16.82
2022-09-12T07:13:37.438Z,17.36
2022-09-12T07:16:05.563Z,18.02
2022-09-12T07:18:35.355Z,17.77
2022-09-12T07:21:02.663Z,17.96
2022-09-12T07:23:32.313Z,17.78
2022-09-12T07:26:00.733Z,18.50
2022-09-12T07:28:29.554Z,18.37
2022-09-12T07:30:56.984Z,18.03
2022-09-12T07:33:27.344Z,18.05
2022-09-12T07:35:54.068Z,18.28
2022-09-12T07:38:21.733Z,18.29
2022-09-12T07:40:48.802Z,19.20
2022-09-12T07:43:15.265Z,18.63
2022-09-12T07:45:41.760Z,19.08
2022-09-12T07:48:09.114Z,19.18
2022-09-12T07:50:36.236Z,18.37
2022-09-12T07:53:04.119Z,18.65
2022-09-12T07:55:31.439Z,19.72
2022-09-12T07:57:57.991Z,19.82
2022-09-12T08:00:24.426Z,19.55
2022-09-12T08:02:52.219Z,19.66
2022-09-12T08:05:19.448Z,20.02
2022-09-12T08:07:45.957Z,20.32
2022-09-12T08:10:12.726Z,20.42
2022-09-12T08:12:39.160Z,20.17
2022-09-12T08:15:06.085Z,20.53
2022-09-12T08:17:32.555Z,21.03
2022-09-12T08:19:58.951Z,20.90
2022-09-12T08:22:25.370Z,21.07
2022-09-12T08:24:51.818Z,22.03
2022-09-12T08:27:18.848Z,20.59
2022-09-12T08:29:45.298Z,21.01
2022-09-12T08:32:11.768Z,21.48
2022-09-12T08:34:38.221Z,20.68
2022-09-12T08:37:04.762Z,20.72
2022-09-12T08:39:31.356Z,21.44
2022-09-12T08:42:06.257Z,21.93
2022-09-12T08:45:04.245Z,22.42
2022-09-12T08:47:39.938Z,21.69
2022-09-12T08:50:09.229Z,21.97
2022-09-12T08:52:54.076Z,21.96
2022-09-12T08:55:37.531Z,22.40
2022-09-12T08:58:19.342Z,22.48
2022-09-12T09:00:54.735Z,23.22
2022-09-12T09:03:36.959Z,23.04
2022-09-12T09:06:29.369Z,23.16
2022-09-12T09:09:08.137Z,23.22
2022-09-12T09:11:40.813Z,23.05
2022-09-12T09:14:20.255Z,24.12
2022-09-12T09:16:49.966Z,23.18
2022-09-12T09:19:16.346Z,22.62
2022-09-12T09:21:59.825Z,22.63
2022-09-12T09:24:39.782Z,23.80
2022-09-12T09:27:40.558Z,24.81
2022-09-12T09:30:19.993Z,23.89
2022-09-12T09:32:51.036Z,24.73
2022-09-12T09:35:20.552Z,24.13
2022-09-12T09:38:24.546Z,24.79
2022-09-12T09:40:50.979Z,24.57
2022-09-12T09:43:25.981Z,24.53
2022-09-12T09:45:52.941Z,24.51
2022-09-12T09:48:44.434Z,22.57
2022-09-12T09:51:11.783Z,23.12
2022-09-12T09:53:49.016Z,22.13
2022-09-12T09:56:39.212Z,24.06
2022-09-12T09:59:18.057Z,25.56
2022-09-12T10:01:45.392Z,23.38
2022-09-12T10:04:19.293Z,23.55
2022-09-12T10:06:45.825Z,22.51
2022-09-12T10:09:14.938Z,24.83
2022-09-12T10:11:45.690Z,23.74
2022-09-12T10:14:29.659Z,23.76
2022-09-12T10:16:56.433Z,23.10
2022-09-12T10:19:33.097Z,22.53
2022-09-12T10:22:00.152Z,22.36
2022-09-12T10:24:34.873Z,23.76
2022-09-12T10:27:12.286Z,23.04
2022-09-12T10:29:46.626Z,21.82
2022-09-12T10:32:21.318Z,22.04
2022-09-12T10:34:48.013Z,23.64
2022-09-12T10:37:23.611Z,22.30
2022-09-12T10:39:55.973Z,22.53
2022-09-12T10:42:45.973Z,22.33
2022-09-12T10:45:41.490Z,22.21
2022-09-12T10:48:23.001Z,22.20
2022-09-12T10:50:49.473Z,21.94
2022-09-12T10:53:21.716Z,22.19
2022-09-12T10:55:51.186Z,22.91
2022-09-12T10:58:31.999Z,22.87
2022-09-12T11:01:23.190Z,22.04
2022-09-12T11:04:26.439Z,22.56
2022-09-12T11:07:19.525Z,21.80
2022-09-12T11:10:04.724Z,22.20
2022-09-12T11:12:55.866Z,22.58
2022-09-12T11:15:46.743Z,22.46
2022-09-12T11:18:49.131Z,22.70
2022-09-12T11:21:34.031Z,22.17
2022-09-12T11:24:15.484Z,23.30
2022-09-12T11:26:57.294Z,23.93
2022-09-12T11:29:49.082Z,23.03
2022-09-12T11:32:46.302Z,22.52
2022-09-12T11:35:17.624Z,22.63
2022-09-12T11:38:02.999Z,22.83
2022-09-12T11:40:42.094Z,22.85
2022-09-12T11:43:14.671Z,22.99
2022-09-12T11:45:45.919Z,22.26
2022-09-12T11:48:19.872Z,22.54
2022-09-12T11:50:46.307Z,22.96
2022-09-12T11:53:31.672Z,23.33
2022-09-12T11:56:06.006Z,23.10
2022-09-12T11:58:32.697Z,23.02
2022-09-12T12:01:21.504Z,22.77
2022-09-12T12:03:49.224Z,22.52
2022-09-12T12:06:26.868Z,22.72
2022-09-12T12:08:53.881Z,22.75
2022-09-12T12:11:44.722Z,23.22
2022-09-12T12:14:22.510Z,23.11
2022-09-12T12:16:50.116Z,22.85
2022-09-12T12:19:16.478Z,22.71
2022-09-12T12:21:52.445Z,23.56
2022-09-12T12:24:25.962Z,23.39
2022-09-12T12:27:03.629Z,23.32
2022-09-12T12:29:44.113Z,22.99
2022-09-12T12:32:10.783Z,23.59
2022-09-12T12:34:38.617Z,22.97
2022-09-12T12:37:20.303Z,23.75
2022-09-12T12:39:46.780Z,23.61
2022-09-12T12:42:35.051Z,23.38
2022-09-12T12:45:04.077Z,23.52
2022-09-12T12:47:36.525Z,23.72
2022-09-12T12:50:10.447Z,23.80
2022-09-12T12:52:58.729Z,23.42
2022-09-12T12:55:35.753Z,23.57
2022-09-12T12:58:03.512Z,22.93
2022-09-12T13:00:40.082Z,23.85
2022-09-12T13:03:11.234Z,23.47
2022-09-12T13:05:46.866Z,23.67
2022-09-12T13:08:19.305Z,22.80
2022-09-12T13:10:54.385Z,23.72
2022-09-12T13:13:31.315Z,24.18
2022-09-12T13:15:58.252Z,24.04
2022-09-12T13:18:38.906Z,24.92
2022-09-12T13:21:13.200Z,24.50
2022-09-12T13:23:40.257Z,24.22
2022-09-12T13:26:25.197Z,24.41
2022-09-12T13:29:19.254Z,24.71
2022-09-12T13:31:49.013Z,25.21
2022-09-12T13:34:22.504Z,24.61
2022-09-12T13:37:16.773Z,25.51
2022-09-12T13:40:16.984Z,26.15
2022-09-12T13:42:48.941Z,25.13
2022-09-12T13:45:20.033Z,24.84
2022-09-12T13:47:50.439Z,24.72
2022-09-12T13:50:22.689Z,24.98
2022-09-12T13:52:55.721Z,25.16
2022-09-12T13:55:41.211Z,24.77
2022-09-12T13:58:34.175Z,25.90
2022-09-12T14:01:14.087Z,25.61
2022-09-12T14:03:43.265Z,25.30
2022-09-12T14:06:10.238Z,25.44
2022-09-12T14:08:40.283Z,25.78
2022-09-12T14:11:29.518Z,25.50
2022-09-12T14:13:59.924Z,25.51
2022-09-12T14:16:26.380Z,26.04
2022-09-12T14:18:52.887Z,26.14
2022-09-12T14:21:28.090Z,25.11
2022-09-12T14:23:54.762Z,25.21
2022-09-12T14:26:21.286Z,25.53
2022-09-12T14:28:48.182Z,25.54
2022-09-12T14:31:14.628Z,25.73
2022-09-12T14:34:08.595Z,25.12
2022-09-12T14:37:06.290Z,25.02
2022-09-12T14:39:44.745Z,25.15
2022-09-12T14:42:22.337Z,24.99
2022-09-12T14:45:15.555Z,24.94
2022-09-12T14:47:43.948Z,25.62
2022-09-12T14:50:24.408Z,25.26
2022-09-12T14:53:20.833Z,25.16
2022-09-12T14:55:58.685Z,25.02
2022-09-12T14:58:28.148Z,24.20
2022-09-12T15:01:01.636Z,24.36
2022-09-12T15:03:32.118Z,24.47
2022-09-12T15:06:00.056Z,24.56
2022-09-12T15:08:26.986Z,24.76
2022-09-12T15:10:53.478Z,24.80
2022-09-12T15:13:22.783Z,24.37
2022-09-12T15:15:52.528Z,24.91
2022-09-12T15:18:20.538Z,24.92
2022-09-12T15:20:50.729Z,25.13
2022-09-12T15:23:38.815Z,25.02
2022-09-12T15:26:05.967Z,24.67
2022-09-12T15:28:33.543Z,24.17
2022-09-12T15:31:24.382Z,24.18
2022-09-12T15:33:51.142Z,24.61
2022-09-12T15:36:20.509Z,24.58
2022-09-12T15:38:47.838Z,25.12
2022-09-12T15:41:20.664Z,25.24
2022-09-12T15:43:47.987Z,24.88
2022-09-12T15:46:16.016Z,25.06
2022-09-12T15:48:42.784Z,24.29
2022-09-12T15:51:15.626Z,24.39
2022-09-12T15:53:43.261Z,24.51
2022-09-12T15:56:09.835Z,24.21
2022-09-12T15:58:36.517Z,23.97
2022-09-12T16:01:03.518Z,24.06
2022-09-12T16:03:30.529Z,24.09
2022-09-12T16:05:59.250Z,24.06
2022-09-12T16:08:25.872Z,24.03
2022-09-12T16:10:59.084Z,24.05
2022-09-12T16:13:26.537Z,23.01
2022-09-12T16:15:57.335Z,23.42
2022-09-12T16:18:24.486Z,23.11
2022-09-12T16:20:54.746Z,23.53
2022-09-12T16:23:21.588Z,23.16
2022-09-12T16:25:58.164Z,23.14
2022-09-12T16:28:24.696Z,23.16
2022-09-12T16:30:58.858Z,23.16
2022-09-12T16:33:26.436Z,23.11
2022-09-12T16:35:53.122Z,23.19
2022-09-12T16:38:19.698Z,23.16
2022-09-12T16:40:48.614Z,23.12
2022-09-12T16:43:15.041Z,22.95
2022-09-12T16:45:41.550Z,22.83
2022-09-12T16:48:08.124Z,22.71
2022-09-12T16:50:34.657Z,22.61
2022-09-12T16:53:01.172Z,22.71
2022-09-12T16:55:27.645Z,22.98
2022-09-12T16:57:54.251Z,22.98
2022-09-12T17:00:21.100Z,22.89
2022-09-12T17:02:47.599Z,23.27
2022-09-12T17:05:15.298Z,22.76
2022-09-12T17:07:42.254Z,22.66
2022-09-12T17:10:08.943Z,22.34
2022-09-12T17:12:35.444Z,22.03
2022-09-12T17:15:01.933Z,22.55
2022-09-12T17:17:28.363Z,22.42
2022-09-12T17:19:54.773Z,22.57
2022-09-12T17:22:21.194Z,22.01
2022-09-12T17:24:47.987Z,22.59
2022-09-12T17:27:14.463Z,22.51
2022-09-12T17:29:40.872Z,21.85
2022-09-12T17:32:07.318Z,22.79
2022-09-12T17:34:33.813Z,22.86
2022-09-12T17:37:00.222Z,22.16
2022-09-12T17:39:26.790Z,22.07
2022-09-12T17:41:53.280Z,22.30
2022-09-12T17:44:19.832Z,22.22
2022-09-12T17:46:46.328Z,22.01
2022-09-12T17:49:18.091Z,22.19
2022-09-12T17:51:44.577Z,22.22
2022-09-12T17:54:14.415Z,22.19
2022-09-12T17:56:40.933Z,21.94
2022-09-12T17:59:08.952Z,21.77
2022-09-12T18:01:35.486Z,21.92
2022-09-12T18:04:02.124Z,21.72
2022-09-12T18:06:30.252Z,22.32
2022-09-12T18:09:00.659Z,21.53
2022-09-12T18:11:27.108Z,21.75
2022-09-12T18:13:53.634Z,21.12
2022-09-12T18:16:20.366Z,21.31
2022-09-12T18:18:46.961Z,21.31
2022-09-12T18:21:13.434Z,21.43
2022-09-12T18:23:39.917Z,21.05
2022-09-12T18:26:08.978Z,21.03
2022-09-12T18:28:37.526Z,20.98
2022-09-12T18:31:05.185Z,20.89
2022-09-12T18:33:31.622Z,20.41
2022-09-12T18:36:04.702Z,19.99
2022-09-12T18:38:31.406Z,20.43
2022-09-12T18:41:13.121Z,20.15
2022-09-12T18:43:39.705Z,19.88
2022-09-12T18:46:14.796Z,20.17
2022-09-12T18:48:41.918Z,20.45
2022-09-12T18:51:15.795Z,20.58
2022-09-12T18:53:42.745Z,20.60
2022-09-12T18:56:12.138Z,19.66
2022-09-12T18:58:40.245Z,19.70
2022-09-12T19:01:15.337Z,19.72
2022-09-12T19:03:42.098Z,19.72
2022-09-12T19:06:17.525Z,19.94
2022-09-12T19:08:45.394Z,20.45
2022-09-12T19:11:12.221Z,20.30
2022-09-12T19:13:41.986Z,19.98
2022-09-12T19:16:11.133Z,19.96
2022-09-12T19:18:39.078Z,19.76
2022-09-12T19:21:07.527Z,19.34
2022-09-12T19:23:35.227Z,19.29
2022-09-12T19:26:06.240Z,19.52
2022-09-12T19:28:32.942Z,19.79
2022-09-12T19:30:59.457Z,19.51
2022-09-12T19:33:26.084Z,19.22
2022-09-12T19:35:52.573Z,19.58
2022-09-12T19:38:19.295Z,19.33
2022-09-12T19:40:59.080Z,19.43
2022-09-12T19:43:25.928Z,19.57
2022-09-12T19:45:52.900Z,19.51
2022-09-12T19:48:21.034Z,19.42
2022-09-12T19:50:48.436Z,19.02
2022-09-12T19:53:16.023Z,19.01
2022-09-12T19:55:43.287Z,18.36
2022-09-12T19:58:09.718Z,18.22
2022-09-12T20:00:36.937Z,18.54
2022-09-12T20:03:04.727Z,19.03
2022-09-12T20:05:34.600Z,19.13
2022-09-12T20:08:01.671Z,19.04
2022-09-12T20:10:28.315Z,18.56
2022-09-12T20:12:54.729Z,18.45
2022-09-12T20:15:21.219Z,18.34
2022-09-12T20:17:48.110Z,18.38
2022-09-12T20:20:14.545Z,18.94
2022-09-12T20:22:40.983Z,18.70
2022-09-12T20:25:08.027Z,19.22
2022-09-12T20:27:34.468Z,19.44
2022-09-12T20:30:00.882Z,19.25
2022-09-12T20:32:27.303Z,18.47
2022-09-12T20:34:53.721Z,18.13
2022-09-12T20:37:20.203Z,17.62
2022-09-12T20:39:50.627Z,17.29
2022-09-12T20:42:17.318Z,18.09
2022-09-12T20:44:43.788Z,18.13
2022-09-12T20:47:10.232Z,17.92
2022-09-12T20:49:36.693Z,18.55
2022-09-12T20:52:03.315Z,18.85
2022-09-12T20:54:29.731Z,19.17
2022-09-12T20:56:56.169Z,18.83
2022-09-12T20:59:22.600Z,18.26
2022-09-12T21:01:49.580Z,18.35
2022-09-12T21:04:16.173Z,18.23
2022-09-12T21:06:42.612Z,18.02
2022-09-12T21:09:09.177Z,18.23
2022-09-12T21:11:35.664Z,18.19
2022-09-12T21:14:02.234Z,18.33
2022-09-12T21:16:28.717Z,18.56
2022-09-12T21:18:57.712Z,18.81
2022-09-12T21:21:25.312Z,18.72
2022-09-12T21:23:51.904Z,18.40
2022-09-12T21:26:18.950Z,18.70
2022-09-12T21:28:45.435Z,18.72
2022-09-12T21:31:11.904Z,18.41
2022-09-12T21:33:38.426Z,18.19
2022-09-12T21:36:06.308Z,18.60
2022-09-12T21:38:33.147Z,18.54
2022-09-12T21:41:07.767Z,18.90
2022-09-12T21:43:34.734Z,18.91
2022-09-12T21:46:02.171Z,18.37
2022-09-12T21:48:29.045Z,18.54
2022-09-12T21:50:55.432Z,18.92
2022-09-12T21:53:22.361Z,19.38
2022-09-12T21:55:49.116Z,19.07
2022-09-12T21:58:16.013Z,18.68
2022-09-12T22:00:43.214Z,18.84
2022-09-12T22:03:10.690Z,18.61
2022-09-12T22:05:38.577Z,18.62
2022-09-12T22:08:05.047Z,18.54
2022-09-12T22:10:31.450Z,18.60
2022-09-12T22:12:58.109Z,18.58
2022-09-12T22:15:41.453Z,18.33
2022-09-12T22:18:08.208Z,17.72
2022-09-12T22:20:34.608Z,17.90
2022-09-12T22:23:01.063Z,17.90
2022-09-12T22:25:27.632Z,18.20
2022-09-12T22:27:54.877Z,17.97
2022-09-12T22:30:22.111Z,18.03
2022-09-12T22:32:49.957Z,17.78
2022-09-12T22:35:18.363Z,18.33
2022-09-12T22:37:44.824Z,18.30
2022-09-12T22:40:11.773Z,17.57
2022-09-12T22:42:38.478Z,18.18
2022-09-12T22:45:06.006Z,18.25
2022-09-12T22:47:32.459Z,18.64
2022-09-12T22:49:58.871Z,18.43
2022-09-12T22:52:25.368Z,18.31
2022-09-12T22:54:51.847Z,18.17
2022-09-12T22:57:19.102Z,18.04
2022-09-12T22:59:45.580Z,17.94
2022-09-12T23:02:12.036Z,18.14
2022-09-12T23:04:38.475Z,18.18
2022-09-12T23:07:05.079Z,18.40
2022-09-12T23:09:35.241Z,18.35
2022-09-12T23:12:02.702Z,18.04
2022-09-12T23:14:29.362Z,18.54
2022-09-12T23:16:55.786Z,18.49
2022-09-12T23:19:22.382Z,18.52
2022-09-12T23:21:48.985Z,18.24
2022-09-12T23:24:15.425Z,18.21
2022-09-12T23:26:41.927Z,18.47
2022-09-12T23:29:08.892Z,18.60
2022-09-12T23:31:35.429Z,18.62
2022-09-12T23:34:04.829Z,18.48
2022-09-12T23:36:31.387Z,18.02
2022-09-12T23:38:57.907Z,17.92
2022-09-12T23:41:24.716Z,18.33
2022-09-12T23:43:51.257Z,18.32
2022-09-12T23:46:19.250Z,18.21
2022-09-12T23:48:45.894Z,17.81
2022-09-12T23:51:12.836Z,18.15
2022-09-12T23:53:39.875Z,17.94
2022-09-12T23:56:06.503Z,17.92
2022-09-12T23:58:33.155Z,17.83
